sensor_id;sensor_type;location;lat;lon;timestamp;P1;durP1;ratioP1;P2;durP2;ratioP2
80278;SDS011;70683;52.492;13.416;2023-11-19T00:00:58;21.50;;;10.85;;
80278;SDS011;70683;52.492;13.416;2023-11-19T00:03:26;19.17;;;10.45;;
80278;SDS011;70683;52.492;13.416;2023-11-19T00:05:52;15.48;;;9.05;;
80278;SDS011;70683;52.492;13.416;2023-11-19T00:08:19;17.37;;;10.90;;
80278;SDS011;70683;52.492;13.416;2023-11-19T00:10:45;17.20;;;9.35;;
80278;SDS011;70683;52.492;13.416;2023-11-19T00:13:12;16.50;;;9.78;;
80278;SDS011;70683;52.492;13.416;2023-11-19T00:15:39;19.82;;;11.03;;
80278;SDS011;70683;52.492;13.416;2023-11-19T00:18:05;14.30;;;9.73;;
80278;SDS011;70683;52.492;13.416;2023-11-19T00:20:32;18.87;;;10.65;;
80278;SDS011;70683;52.492;13.416;2023-11-19T00:22:59;18.05;;;9.53;;
80278;SDS011;70683;52.492;13.416;2023-11-19T00:25:28;18.27;;;9.85;;
80278;SDS011;70683;52.492;13.416;2023-11-19T00:27:54;13.43;;;8.05;;
80278;SDS011;70683;52.492;13.416;2023-11-19T00:30:22;14.70;;;8.95;;
80278;SDS011;70683;52.492;13.416;2023-11-19T00:32:48;15.15;;;7.53;;
80278;SDS011;70683;52.492;13.416;2023-11-19T00:35:15;17.50;;;9.13;;
80278;SDS011;70683;52.492;13.416;2023-11-19T00:37:42;16.62;;;7.97;;
80278;SDS011;70683;52.492;13.416;2023-11-19T00:40:11;15.50;;;8.53;;
80278;SDS011;70683;52.492;13.416;2023-11-19T00:42:37;24.63;;;11.03;;
80278;SDS011;70683;52.492;13.416;2023-11-19T00:45:04;14.87;;;8.58;;
80278;SDS011;70683;52.492;13.416;2023-11-19T00:47:34;16.32;;;8.85;;
80278;SDS011;70683;52.492;13.416;2023-11-19T00:50:02;14.40;;;8.20;;
80278;SDS011;70683;52.492;13.416;2023-11-19T00:52:29;17.45;;;9.30;;
80278;SDS011;70683;52.492;13.416;2023-11-19T00:54:55;14.33;;;7.83;;
80278;SDS011;70683;52.492;13.416;2023-11-19T00:57:22;15.63;;;8.33;;
80278;SDS011;70683;52.492;13.416;2023-11-19T00:59:49;15.72;;;8.95;;
80278;SDS011;70683;52.492;13.416;2023-11-19T01:02:16;16.12;;;8.55;;
80278;SDS011;70683;52.492;13.416;2023-11-19T01:04:43;17.87;;;10.08;;
80278;SDS011;70683;52.492;13.416;2023-11-19T01:07:09;17.32;;;9.30;;
80278;SDS011;70683;52.492;13.416;2023-11-19T01:09:38;17.75;;;9.60;;
80278;SDS011;70683;52.492;13.416;2023-11-19T01:12:07;13.83;;;7.58;;
80278;SDS011;70683;52.492;13.416;2023-11-19T01:14:34;12.43;;;7.72;;
80278;SDS011;70683;52.492;13.416;2023-11-19T01:17:01;11.90;;;6.72;;
80278;SDS011;70683;52.492;13.416;2023-11-19T01:19:28;12.60;;;6.92;;
80278;SDS011;70683;52.492;13.416;2023-11-19T01:21:54;13.43;;;7.25;;
80278;SDS011;70683;52.492;13.416;2023-11-19T01:24:22;15.28;;;8.70;;
80278;SDS011;70683;52.492;13.416;2023-11-19T01:26:48;14.98;;;7.53;;
80278;SDS011;70683;52.492;13.416;2023-11-19T01:29:15;16.07;;;8.95;;
80278;SDS011;70683;52.492;13.416;2023-11-19T01:31:42;13.32;;;7.60;;
80278;SDS011;70683;52.492;13.416;2023-11-19T01:34:10;13.88;;;7.42;;
80278;SDS011;70683;52.492;13.416;2023-11-19T01:36:37;14.45;;;7.47;;
80278;SDS011;70683;52.492;13.416;2023-11-19T01:39:04;14.05;;;6.95;;
80278;SDS011;70683;52.492;13.416;2023-11-19T01:41:35;14.23;;;7.58;;
80278;SDS011;70683;52.492;13.416;2023-11-19T01:44:02;18.23;;;7.92;;
80278;SDS011;70683;52.492;13.416;2023-11-19T01:46:29;13.28;;;8.20;;
80278;SDS011;70683;52.492;13.416;2023-11-19T01:48:59;15.58;;;7.08;;
80278;SDS011;70683;52.492;13.416;2023-11-19T01:51:26;9.23;;;6.15;;
80278;SDS011;70683;52.492;13.416;2023-11-19T01:53:54;11.90;;;6.47;;
80278;SDS011;70683;52.492;13.416;2023-11-19T01:56:22;10.30;;;6.15;;
80278;SDS011;70683;52.492;13.416;2023-11-19T01:58:50;11.80;;;6.65;;
80278;SDS011;70683;52.492;13.416;2023-11-19T02:01:17;11.28;;;6.97;;
80278;SDS011;70683;52.492;13.416;2023-11-19T02:03:44;12.65;;;7.03;;
80278;SDS011;70683;52.492;13.416;2023-11-19T02:06:12;16.85;;;7.75;;
80278;SDS011;70683;52.492;13.416;2023-11-19T02:08:39;12.63;;;7.40;;
80278;SDS011;70683;52.492;13.416;2023-11-19T02:11:06;10.18;;;6.87;;
80278;SDS011;70683;52.492;13.416;2023-11-19T02:13:32;10.98;;;6.60;;
80278;SDS011;70683;52.492;13.416;2023-11-19T02:16:02;10.90;;;6.22;;
80278;SDS011;70683;52.492;13.416;2023-11-19T02:18:29;16.87;;;6.42;;
80278;SDS011;70683;52.492;13.416;2023-11-19T02:20:57;11.78;;;6.00;;
80278;SDS011;70683;52.492;13.416;2023-11-19T02:23:25;10.10;;;5.95;;
80278;SDS011;70683;52.492;13.416;2023-11-19T02:26:18;12.63;;;6.58;;
80278;SDS011;70683;52.492;13.416;2023-11-19T02:28:45;8.03;;;5.75;;
80278;SDS011;70683;52.492;13.416;2023-11-19T02:31:12;10.70;;;6.22;;
80278;SDS011;70683;52.492;13.416;2023-11-19T02:33:38;12.03;;;6.00;;
80278;SDS011;70683;52.492;13.416;2023-11-19T02:36:06;9.18;;;6.22;;
80278;SDS011;70683;52.492;13.416;2023-11-19T02:38:34;8.28;;;5.92;;
80278;SDS011;70683;52.492;13.416;2023-11-19T02:41:03;11.88;;;5.22;;
80278;SDS011;70683;52.492;13.416;2023-11-19T02:43:31;8.38;;;5.90;;
80278;SDS011;70683;52.492;13.416;2023-11-19T02:46:00;8.83;;;5.40;;
80278;SDS011;70683;52.492;13.416;2023-11-19T02:48:27;11.12;;;5.78;;
80278;SDS011;70683;52.492;13.416;2023-11-19T02:50:54;9.10;;;5.40;;
80278;SDS011;70683;52.492;13.416;2023-11-19T02:53:23;7.65;;;5.60;;
80278;SDS011;70683;52.492;13.416;2023-11-19T02:55:52;11.38;;;5.00;;
80278;SDS011;70683;52.492;13.416;2023-11-19T02:58:21;7.45;;;4.78;;
80278;SDS011;70683;52.492;13.416;2023-11-19T03:00:50;9.13;;;5.83;;
80278;SDS011;70683;52.492;13.416;2023-11-19T03:03:30;9.63;;;5.67;;
80278;SDS011;70683;52.492;13.416;2023-11-19T03:05:59;10.65;;;5.45;;
80278;SDS011;70683;52.492;13.416;2023-11-19T03:08:28;8.28;;;5.60;;
80278;SDS011;70683;52.492;13.416;2023-11-19T03:10:55;7.10;;;4.62;;
80278;SDS011;70683;52.492;13.416;2023-11-19T03:13:21;8.93;;;4.60;;
80278;SDS011;70683;52.492;13.416;2023-11-19T03:15:48;6.45;;;4.58;;
80278;SDS011;70683;52.492;13.416;2023-11-19T03:18:15;7.72;;;5.15;;
80278;SDS011;70683;52.492;13.416;2023-11-19T03:20:41;8.40;;;5.22;;
80278;SDS011;70683;52.492;13.416;2023-11-19T03:23:08;7.33;;;5.45;;
80278;SDS011;70683;52.492;13.416;2023-11-19T03:25:35;8.95;;;4.67;;
80278;SDS011;70683;52.492;13.416;2023-11-19T03:28:03;8.65;;;5.05;;
80278;SDS011;70683;52.492;13.416;2023-11-19T03:30:30;8.55;;;4.62;;
80278;SDS011;70683;52.492;13.416;2023-11-19T03:32:57;9.20;;;4.62;;
80278;SDS011;70683;52.492;13.416;2023-11-19T03:35:25;10.08;;;5.00;;
80278;SDS011;70683;52.492;13.416;2023-11-19T03:37:51;6.53;;;4.65;;
80278;SDS011;70683;52.492;13.416;2023-11-19T03:40:18;8.60;;;5.12;;
80278;SDS011;70683;52.492;13.416;2023-11-19T03:42:45;10.65;;;6.10;;
80278;SDS011;70683;52.492;13.416;2023-11-19T03:45:12;7.67;;;4.97;;
80278;SDS011;70683;52.492;13.416;2023-11-19T03:47:40;9.35;;;6.17;;
80278;SDS011;70683;52.492;13.416;2023-11-19T03:50:07;8.75;;;6.00;;
80278;SDS011;70683;52.492;13.416;2023-11-19T03:52:34;11.28;;;6.45;;
80278;SDS011;70683;52.492;13.416;2023-11-19T03:55:01;9.45;;;6.55;;
80278;SDS011;70683;52.492;13.416;2023-11-19T03:57:30;10.93;;;6.20;;
80278;SDS011;70683;52.492;13.416;2023-11-19T03:59:57;9.45;;;6.58;;
80278;SDS011;70683;52.492;13.416;2023-11-19T04:02:24;12.37;;;7.80;;
80278;SDS011;70683;52.492;13.416;2023-11-19T04:04:54;12.73;;;6.37;;
80278;SDS011;70683;52.492;13.416;2023-11-19T04:07:21;13.30;;;7.22;;
80278;SDS011;70683;52.492;13.416;2023-11-19T04:09:48;12.58;;;7.83;;
80278;SDS011;70683;52.492;13.416;2023-11-19T04:12:14;14.65;;;8.10;;
80278;SDS011;70683;52.492;13.416;2023-11-19T04:14:41;11.03;;;7.47;;
80278;SDS011;70683;52.492;13.416;2023-11-19T04:17:08;10.85;;;7.00;;
80278;SDS011;70683;52.492;13.416;2023-11-19T04:19:34;13.30;;;8.80;;
80278;SDS011;70683;52.492;13.416;2023-11-19T04:22:01;11.10;;;7.60;;
80278;SDS011;70683;52.492;13.416;2023-11-19T04:24:28;11.38;;;7.58;;
80278;SDS011;70683;52.492;13.416;2023-11-19T04:26:54;10.65;;;7.53;;
80278;SDS011;70683;52.492;13.416;2023-11-19T04:29:21;12.03;;;7.60;;
80278;SDS011;70683;52.492;13.416;2023-11-19T04:31:47;9.70;;;7.17;;
80278;SDS011;70683;52.492;13.416;2023-11-19T04:34:14;12.35;;;7.40;;
80278;SDS011;70683;52.492;13.416;2023-11-19T04:36:41;11.93;;;7.97;;
80278;SDS011;70683;52.492;13.416;2023-11-19T04:39:09;10.18;;;7.05;;
80278;SDS011;70683;52.492;13.416;2023-11-19T04:44:15;21.33;;;8.78;;
80278;SDS011;70683;52.492;13.416;2023-11-19T04:46:43;12.53;;;7.70;;
80278;SDS011;70683;52.492;13.416;2023-11-19T04:49:10;14.07;;;8.63;;
80278;SDS011;70683;52.492;13.416;2023-11-19T04:51:38;16.55;;;8.35;;
80278;SDS011;70683;52.492;13.416;2023-11-19T04:54:07;13.65;;;8.38;;
80278;SDS011;70683;52.492;13.416;2023-11-19T04:56:36;19.25;;;8.40;;
80278;SDS011;70683;52.492;13.416;2023-11-19T04:59:03;14.53;;;8.93;;
80278;SDS011;70683;52.492;13.416;2023-11-19T05:01:32;15.68;;;8.63;;
80278;SDS011;70683;52.492;13.416;2023-11-19T05:03:59;13.70;;;10.05;;
80278;SDS011;70683;52.492;13.416;2023-11-19T05:06:26;15.88;;;9.15;;
80278;SDS011;70683;52.492;13.416;2023-11-19T05:08:55;23.00;;;10.15;;
80278;SDS011;70683;52.492;13.416;2023-11-19T05:11:22;20.48;;;10.03;;
80278;SDS011;70683;52.492;13.416;2023-11-19T05:13:48;17.65;;;9.00;;
80278;SDS011;70683;52.492;13.416;2023-11-19T05:16:16;21.97;;;10.23;;
80278;SDS011;70683;52.492;13.416;2023-11-19T05:18:43;16.85;;;9.65;;
80278;SDS011;70683;52.492;13.416;2023-11-19T05:21:10;14.07;;;9.38;;
80278;SDS011;70683;52.492;13.416;2023-11-19T05:23:37;14.10;;;8.93;;
80278;SDS011;70683;52.492;13.416;2023-11-19T05:26:04;21.73;;;10.25;;
80278;SDS011;70683;52.492;13.416;2023-11-19T05:28:31;34.55;;;9.93;;
80278;SDS011;70683;52.492;13.416;2023-11-19T05:30:58;15.25;;;10.08;;
80278;SDS011;70683;52.492;13.416;2023-11-19T05:33:24;15.38;;;9.60;;
80278;SDS011;70683;52.492;13.416;2023-11-19T05:35:51;17.17;;;10.13;;
80278;SDS011;70683;52.492;13.416;2023-11-19T05:38:18;14.68;;;9.95;;
80278;SDS011;70683;52.492;13.416;2023-11-19T05:40:46;20.52;;;10.28;;
80278;SDS011;70683;52.492;13.416;2023-11-19T05:43:14;16.57;;;10.38;;
80278;SDS011;70683;52.492;13.416;2023-11-19T05:45:42;15.20;;;9.28;;
80278;SDS011;70683;52.492;13.416;2023-11-19T05:48:09;16.55;;;10.28;;
80278;SDS011;70683;52.492;13.416;2023-11-19T05:50:36;14.95;;;9.58;;
80278;SDS011;70683;52.492;13.416;2023-11-19T05:53:02;13.72;;;8.75;;
80278;SDS011;70683;52.492;13.416;2023-11-19T05:55:33;16.82;;;9.98;;
80278;SDS011;70683;52.492;13.416;2023-11-19T05:58:00;14.63;;;9.33;;
80278;SDS011;70683;52.492;13.416;2023-11-19T06:00:28;15.95;;;9.00;;
80278;SDS011;70683;52.492;13.416;2023-11-19T06:02:56;15.63;;;10.55;;
80278;SDS011;70683;52.492;13.416;2023-11-19T06:05:23;17.42;;;11.03;;
80278;SDS011;70683;52.492;13.416;2023-11-19T06:07:49;15.08;;;9.48;;
80278;SDS011;70683;52.492;13.416;2023-11-19T06:10:16;14.60;;;9.60;;
80278;SDS011;70683;52.492;13.416;2023-11-19T06:12:44;16.75;;;9.63;;
80278;SDS011;70683;52.492;13.416;2023-11-19T06:15:11;15.38;;;10.25;;
80278;SDS011;70683;52.492;13.416;2023-11-19T06:17:39;12.35;;;9.08;;
80278;SDS011;70683;52.492;13.416;2023-11-19T06:20:06;14.78;;;9.75;;
80278;SDS011;70683;52.492;13.416;2023-11-19T06:22:33;14.00;;;9.15;;
80278;SDS011;70683;52.492;13.416;2023-11-19T06:25:01;13.43;;;8.53;;
80278;SDS011;70683;52.492;13.416;2023-11-19T06:27:30;11.78;;;7.62;;
80278;SDS011;70683;52.492;13.416;2023-11-19T06:29:56;13.50;;;8.98;;
80278;SDS011;70683;52.492;13.416;2023-11-19T06:32:23;15.65;;;8.50;;
80278;SDS011;70683;52.492;13.416;2023-11-19T06:34:50;13.05;;;8.53;;
80278;SDS011;70683;52.492;13.416;2023-11-19T06:37:17;13.05;;;8.90;;
80278;SDS011;70683;52.492;13.416;2023-11-19T06:39:43;15.03;;;9.03;;
80278;SDS011;70683;52.492;13.416;2023-11-19T06:42:10;13.50;;;9.48;;
80278;SDS011;70683;52.492;13.416;2023-11-19T06:44:36;12.82;;;8.48;;
80278;SDS011;70683;52.492;13.416;2023-11-19T06:47:03;12.13;;;8.65;;
80278;SDS011;70683;52.492;13.416;2023-11-19T06:49:30;12.68;;;8.78;;
80278;SDS011;70683;52.492;13.416;2023-11-19T06:51:57;14.90;;;8.30;;
80278;SDS011;70683;52.492;13.416;2023-11-19T06:54:25;10.45;;;7.85;;
80278;SDS011;70683;52.492;13.416;2023-11-19T06:56:51;14.53;;;8.90;;
80278;SDS011;70683;52.492;13.416;2023-11-19T06:59:18;14.23;;;7.92;;
80278;SDS011;70683;52.492;13.416;2023-11-19T07:01:44;16.02;;;8.38;;
80278;SDS011;70683;52.492;13.416;2023-11-19T07:04:11;13.90;;;8.00;;
80278;SDS011;70683;52.492;13.416;2023-11-19T07:06:38;10.78;;;7.87;;
80278;SDS011;70683;52.492;13.416;2023-11-19T07:09:07;12.75;;;8.15;;
80278;SDS011;70683;52.492;13.416;2023-11-19T07:11:36;12.93;;;7.85;;
80278;SDS011;70683;52.492;13.416;2023-11-19T07:14:05;12.63;;;8.25;;
80278;SDS011;70683;52.492;13.416;2023-11-19T07:16:33;12.13;;;7.62;;
80278;SDS011;70683;52.492;13.416;2023-11-19T07:19:00;11.53;;;7.47;;
80278;SDS011;70683;52.492;13.416;2023-11-19T07:21:27;15.40;;;8.48;;
80278;SDS011;70683;52.492;13.416;2023-11-19T07:23:54;12.15;;;8.10;;
80278;SDS011;70683;52.492;13.416;2023-11-19T07:26:21;12.13;;;8.03;;
80278;SDS011;70683;52.492;13.416;2023-11-19T07:28:49;13.65;;;8.40;;
80278;SDS011;70683;52.492;13.416;2023-11-19T07:31:16;15.08;;;8.93;;
80278;SDS011;70683;52.492;13.416;2023-11-19T07:33:46;12.82;;;8.45;;
80278;SDS011;70683;52.492;13.416;2023-11-19T07:36:13;12.43;;;8.15;;
80278;SDS011;70683;52.492;13.416;2023-11-19T07:38:40;16.32;;;9.50;;
80278;SDS011;70683;52.492;13.416;2023-11-19T07:41:07;10.88;;;8.15;;
80278;SDS011;70683;52.492;13.416;2023-11-19T07:43:36;14.50;;;9.33;;
80278;SDS011;70683;52.492;13.416;2023-11-19T07:46:03;12.85;;;8.38;;
80278;SDS011;70683;52.492;13.416;2023-11-19T07:48:30;11.95;;;8.05;;
80278;SDS011;70683;52.492;13.416;2023-11-19T07:50:57;9.80;;;6.70;;
80278;SDS011;70683;52.492;13.416;2023-11-19T07:53:24;11.97;;;7.17;;
80278;SDS011;70683;52.492;13.416;2023-11-19T07:55:51;12.35;;;7.17;;
80278;SDS011;70683;52.492;13.416;2023-11-19T07:58:17;14.68;;;8.98;;
80278;SDS011;70683;52.492;13.416;2023-11-19T08:00:44;9.60;;;7.50;;
80278;SDS011;70683;52.492;13.416;2023-11-19T08:03:11;12.30;;;8.25;;
80278;SDS011;70683;52.492;13.416;2023-11-19T08:05:37;9.90;;;6.58;;
80278;SDS011;70683;52.492;13.416;2023-11-19T08:08:05;11.20;;;7.17;;
80278;SDS011;70683;52.492;13.416;2023-11-19T08:10:32;13.28;;;8.40;;
80278;SDS011;70683;52.492;13.416;2023-11-19T08:13:00;9.88;;;6.87;;
80278;SDS011;70683;52.492;13.416;2023-11-19T08:15:27;14.45;;;7.85;;
80278;SDS011;70683;52.492;13.416;2023-11-19T08:17:54;11.53;;;7.50;;
80278;SDS011;70683;52.492;13.416;2023-11-19T08:20:20;13.58;;;8.08;;
80278;SDS011;70683;52.492;13.416;2023-11-19T08:22:47;17.12;;;11.73;;
80278;SDS011;70683;52.492;13.416;2023-11-19T08:25:14;12.98;;;9.03;;
80278;SDS011;70683;52.492;13.416;2023-11-19T08:27:40;18.95;;;12.20;;
80278;SDS011;70683;52.492;13.416;2023-11-19T08:30:08;17.80;;;12.15;;
80278;SDS011;70683;52.492;13.416;2023-11-19T08:32:36;16.37;;;11.05;;
80278;SDS011;70683;52.492;13.416;2023-11-19T08:35:03;14.58;;;10.10;;
80278;SDS011;70683;52.492;13.416;2023-11-19T08:37:29;18.23;;;10.43;;
80278;SDS011;70683;52.492;13.416;2023-11-19T08:39:56;29.90;;;17.05;;
80278;SDS011;70683;52.492;13.416;2023-11-19T08:42:23;24.20;;;14.28;;
80278;SDS011;70683;52.492;13.416;2023-11-19T08:44:50;23.18;;;12.90;;
80278;SDS011;70683;52.492;13.416;2023-11-19T08:47:19;13.22;;;9.20;;
80278;SDS011;70683;52.492;13.416;2023-11-19T08:49:47;14.73;;;8.33;;
80278;SDS011;70683;52.492;13.416;2023-11-19T08:52:17;13.10;;;8.03;;
80278;SDS011;70683;52.492;13.416;2023-11-19T08:54:44;14.20;;;9.50;;
80278;SDS011;70683;52.492;13.416;2023-11-19T08:57:10;13.60;;;9.40;;
80278;SDS011;70683;52.492;13.416;2023-11-19T08:59:37;13.58;;;9.53;;
80278;SDS011;70683;52.492;13.416;2023-11-19T09:02:05;12.53;;;8.85;;
80278;SDS011;70683;52.492;13.416;2023-11-19T09:04:32;11.60;;;8.35;;
80278;SDS011;70683;52.492;13.416;2023-11-19T09:06:59;12.65;;;8.93;;
80278;SDS011;70683;52.492;13.416;2023-11-19T09:09:25;12.80;;;8.58;;
80278;SDS011;70683;52.492;13.416;2023-11-19T09:11:52;16.40;;;11.85;;
80278;SDS011;70683;52.492;13.416;2023-11-19T09:14:18;17.32;;;10.95;;
80278;SDS011;70683;52.492;13.416;2023-11-19T09:16:47;18.52;;;11.18;;
80278;SDS011;70683;52.492;13.416;2023-11-19T09:19:14;15.43;;;9.08;;
80278;SDS011;70683;52.492;13.416;2023-11-19T09:21:40;17.10;;;10.43;;
80278;SDS011;70683;52.492;13.416;2023-11-19T09:24:07;12.53;;;8.90;;
80278;SDS011;70683;52.492;13.416;2023-11-19T09:26:34;16.42;;;11.33;;
80278;SDS011;70683;52.492;13.416;2023-11-19T09:29:02;16.48;;;12.13;;
80278;SDS011;70683;52.492;13.416;2023-11-19T09:31:28;17.12;;;12.85;;
80278;SDS011;70683;52.492;13.416;2023-11-19T09:33:55;19.80;;;11.43;;
80278;SDS011;70683;52.492;13.416;2023-11-19T09:36:22;15.30;;;9.48;;
80278;SDS011;70683;52.492;13.416;2023-11-19T09:38:49;15.63;;;10.25;;
80278;SDS011;70683;52.492;13.416;2023-11-19T09:41:15;16.82;;;9.83;;
80278;SDS011;70683;52.492;13.416;2023-11-19T09:43:44;20.35;;;12.95;;
80278;SDS011;70683;52.492;13.416;2023-11-19T09:46:12;16.55;;;9.93;;
80278;SDS011;70683;52.492;13.416;2023-11-19T09:48:41;16.17;;;9.20;;
80278;SDS011;70683;52.492;13.416;2023-11-19T09:51:09;11.73;;;8.45;;
80278;SDS011;70683;52.492;13.416;2023-11-19T09:53:37;12.28;;;8.05;;
80278;SDS011;70683;52.492;13.416;2023-11-19T09:56:04;11.08;;;8.65;;
80278;SDS011;70683;52.492;13.416;2023-11-19T09:58:32;21.95;;;14.68;;
80278;SDS011;70683;52.492;13.416;2023-11-19T10:00:59;65.32;;;31.93;;
80278;SDS011;70683;52.492;13.416;2023-11-19T10:03:32;58.85;;;29.72;;
80278;SDS011;70683;52.492;13.416;2023-11-19T10:06:02;51.70;;;25.25;;
80278;SDS011;70683;52.492;13.416;2023-11-19T10:08:29;27.62;;;15.58;;
80278;SDS011;70683;52.492;13.416;2023-11-19T10:10:56;15.63;;;8.35;;
80278;SDS011;70683;52.492;13.416;2023-11-19T10:13:26;13.18;;;6.62;;
80278;SDS011;70683;52.492;13.416;2023-11-19T10:15:54;13.15;;;5.50;;
80278;SDS011;70683;52.492;13.416;2023-11-19T10:18:25;6.28;;;3.90;;
80278;SDS011;70683;52.492;13.416;2023-11-19T10:20:52;8.48;;;4.53;;
80278;SDS011;70683;52.492;13.416;2023-11-19T10:23:20;6.60;;;4.03;;
80278;SDS011;70683;52.492;13.416;2023-11-19T10:25:47;8.10;;;3.80;;
80278;SDS011;70683;52.492;13.416;2023-11-19T10:28:15;6.85;;;3.60;;
80278;SDS011;70683;52.492;13.416;2023-11-19T10:30:42;5.03;;;3.10;;
80278;SDS011;70683;52.492;13.416;2023-11-19T10:33:09;8.10;;;3.40;;
80278;SDS011;70683;52.492;13.416;2023-11-19T10:35:51;7.58;;;3.62;;
80278;SDS011;70683;52.492;13.416;2023-11-19T10:38:24;7.67;;;3.87;;
80278;SDS011;70683;52.492;13.416;2023-11-19T10:40:51;13.18;;;4.05;;
80278;SDS011;70683;52.492;13.416;2023-11-19T10:43:20;8.90;;;4.12;;
80278;SDS011;70683;52.492;13.416;2023-11-19T10:45:48;10.05;;;3.45;;
80278;SDS011;70683;52.492;13.416;2023-11-19T10:48:15;12.15;;;4.03;;
80278;SDS011;70683;52.492;13.416;2023-11-19T10:50:43;8.20;;;4.55;;
80278;SDS011;70683;52.492;13.416;2023-11-19T10:53:11;18.65;;;5.47;;
80278;SDS011;70683;52.492;13.416;2023-11-19T10:55:39;9.85;;;3.50;;
80278;SDS011;70683;52.492;13.416;2023-11-19T10:58:06;8.55;;;3.22;;
80278;SDS011;70683;52.492;13.416;2023-11-19T11:00:39;11.53;;;3.17;;
80278;SDS011;70683;52.492;13.416;2023-11-19T11:03:16;6.45;;;3.00;;
80278;SDS011;70683;52.492;13.416;2023-11-19T11:05:46;9.60;;;2.60;;
80278;SDS011;70683;52.492;13.416;2023-11-19T11:08:14;11.05;;;3.15;;
80278;SDS011;70683;52.492;13.416;2023-11-19T11:10:43;15.05;;;3.42;;
80278;SDS011;70683;52.492;13.416;2023-11-19T11:13:11;14.83;;;3.37;;
80278;SDS011;70683;52.492;13.416;2023-11-19T11:15:40;13.13;;;3.67;;
80278;SDS011;70683;52.492;13.416;2023-11-19T11:18:10;12.85;;;3.15;;
80278;SDS011;70683;52.492;13.416;2023-11-19T11:20:38;15.20;;;3.63;;
80278;SDS011;70683;52.492;13.416;2023-11-19T11:23:41;17.23;;;3.83;;
80278;SDS011;70683;52.492;13.416;2023-11-19T11:28:52;17.82;;;3.98;;
80278;SDS011;70683;52.492;13.416;2023-11-19T11:31:31;18.02;;;3.33;;
80278;SDS011;70683;52.492;13.416;2023-11-19T11:34:09;17.57;;;4.28;;
80278;SDS011;70683;52.492;13.416;2023-11-19T11:37:03;14.03;;;3.50;;
80278;SDS011;70683;52.492;13.416;2023-11-19T11:39:29;17.07;;;4.20;;
80278;SDS011;70683;52.492;13.416;2023-11-19T11:48:04;20.90;;;4.15;;
80278;SDS011;70683;52.492;13.416;2023-11-19T11:50:47;19.82;;;3.80;;
80278;SDS011;70683;52.492;13.416;2023-11-19T11:53:13;22.58;;;3.55;;
80278;SDS011;70683;52.492;13.416;2023-11-19T11:58:25;16.80;;;4.67;;
80278;SDS011;70683;52.492;13.416;2023-11-19T12:00:57;23.70;;;4.53;;
80278;SDS011;70683;52.492;13.416;2023-11-19T12:03:27;22.02;;;5.22;;
80278;SDS011;70683;52.492;13.416;2023-11-19T12:05:55;22.77;;;4.90;;
80278;SDS011;70683;52.492;13.416;2023-11-19T12:08:24;18.32;;;3.85;;
80278;SDS011;70683;52.492;13.416;2023-11-19T12:10:53;19.00;;;4.28;;
80278;SDS011;70683;52.492;13.416;2023-11-19T12:13:24;24.20;;;4.37;;
80278;SDS011;70683;52.492;13.416;2023-11-19T12:18:38;17.60;;;4.00;;
80278;SDS011;70683;52.492;13.416;2023-11-19T12:21:06;15.98;;;3.95;;
80278;SDS011;70683;52.492;13.416;2023-11-19T12:23:35;16.17;;;3.65;;
80278;SDS011;70683;52.492;13.416;2023-11-19T12:26:05;15.32;;;3.87;;
80278;SDS011;70683;52.492;13.416;2023-11-19T12:28:32;16.17;;;4.20;;
80278;SDS011;70683;52.492;13.416;2023-11-19T12:31:07;26.80;;;5.47;;
80278;SDS011;70683;52.492;13.416;2023-11-19T12:33:35;15.83;;;4.90;;
80278;SDS011;70683;52.492;13.416;2023-11-19T12:36:03;24.25;;;4.55;;
80278;SDS011;70683;52.492;13.416;2023-11-19T12:38:31;18.30;;;4.05;;
80278;SDS011;70683;52.492;13.416;2023-11-19T12:41:02;14.23;;;4.30;;
80278;SDS011;70683;52.492;13.416;2023-11-19T12:43:32;12.20;;;3.98;;
80278;SDS011;70683;52.492;13.416;2023-11-19T12:46:00;23.10;;;5.25;;
80278;SDS011;70683;52.492;13.416;2023-11-19T12:48:26;36.90;;;8.90;;
80278;SDS011;70683;52.492;13.416;2023-11-19T12:50:54;31.52;;;6.62;;
80278;SDS011;70683;52.492;13.416;2023-11-19T12:53:23;24.32;;;5.28;;
80278;SDS011;70683;52.492;13.416;2023-11-19T12:55:51;22.90;;;5.28;;
80278;SDS011;70683;52.492;13.416;2023-11-19T13:00:59;22.27;;;4.70;;
80278;SDS011;70683;52.492;13.416;2023-11-19T13:03:29;20.43;;;5.00;;
80278;SDS011;70683;52.492;13.416;2023-11-19T13:06:03;24.18;;;5.12;;
80278;SDS011;70683;52.492;13.416;2023-11-19T13:08:35;28.35;;;5.78;;
80278;SDS011;70683;52.492;13.416;2023-11-19T13:11:06;21.02;;;4.75;;
80278;SDS011;70683;52.492;13.416;2023-11-19T13:16:12;19.52;;;4.87;;
80278;SDS011;70683;52.492;13.416;2023-11-19T13:18:40;29.18;;;6.00;;
80278;SDS011;70683;52.492;13.416;2023-11-19T13:21:06;24.45;;;5.30;;
80278;SDS011;70683;52.492;13.416;2023-11-19T13:23:33;25.65;;;5.03;;
80278;SDS011;70683;52.492;13.416;2023-11-19T13:25:59;21.68;;;4.87;;
80278;SDS011;70683;52.492;13.416;2023-11-19T13:28:26;37.13;;;6.15;;
80278;SDS011;70683;52.492;13.416;2023-11-19T13:30:53;29.20;;;5.35;;
80278;SDS011;70683;52.492;13.416;2023-11-19T13:33:19;21.70;;;4.70;;
80278;SDS011;70683;52.492;13.416;2023-11-19T13:35:46;22.40;;;5.60;;
80278;SDS011;70683;52.492;13.416;2023-11-19T13:38:13;23.02;;;5.47;;
80278;SDS011;70683;52.492;13.416;2023-11-19T13:40:41;23.47;;;4.62;;
80278;SDS011;70683;52.492;13.416;2023-11-19T13:43:07;33.88;;;5.22;;
80278;SDS011;70683;52.492;13.416;2023-11-19T13:45:34;25.20;;;5.15;;
80278;SDS011;70683;52.492;13.416;2023-11-19T13:48:01;28.05;;;5.33;;
80278;SDS011;70683;52.492;13.416;2023-11-19T13:50:27;25.75;;;6.70;;
80278;SDS011;70683;52.492;13.416;2023-11-19T13:52:54;28.32;;;7.35;;
80278;SDS011;70683;52.492;13.416;2023-11-19T13:55:22;23.95;;;5.67;;
80278;SDS011;70683;52.492;13.416;2023-11-19T13:57:49;28.73;;;5.40;;
80278;SDS011;70683;52.492;13.416;2023-11-19T14:00:15;30.75;;;5.17;;
80278;SDS011;70683;52.492;13.416;2023-11-19T14:02:46;28.25;;;4.97;;
80278;SDS011;70683;52.492;13.416;2023-11-19T14:05:13;27.20;;;6.03;;
80278;SDS011;70683;52.492;13.416;2023-11-19T14:07:43;24.70;;;5.45;;
80278;SDS011;70683;52.492;13.416;2023-11-19T14:10:10;24.75;;;5.17;;
80278;SDS011;70683;52.492;13.416;2023-11-19T14:12:37;27.85;;;6.92;;
80278;SDS011;70683;52.492;13.416;2023-11-19T14:15:05;20.60;;;4.85;;
80278;SDS011;70683;52.492;13.416;2023-11-19T14:17:33;31.75;;;5.33;;
80278;SDS011;70683;52.492;13.416;2023-11-19T14:20:00;23.80;;;5.83;;
80278;SDS011;70683;52.492;13.416;2023-11-19T14:22:28;26.17;;;5.72;;
80278;SDS011;70683;52.492;13.416;2023-11-19T14:24:56;26.35;;;5.28;;
80278;SDS011;70683;52.492;13.416;2023-11-19T14:27:23;28.80;;;5.42;;
80278;SDS011;70683;52.492;13.416;2023-11-19T14:29:50;25.82;;;5.45;;
80278;SDS011;70683;52.492;13.416;2023-11-19T14:32:18;24.92;;;5.40;;
80278;SDS011;70683;52.492;13.416;2023-11-19T14:34:44;32.03;;;7.53;;
80278;SDS011;70683;52.492;13.416;2023-11-19T14:37:11;34.88;;;10.00;;
80278;SDS011;70683;52.492;13.416;2023-11-19T14:39:37;39.25;;;11.35;;
80278;SDS011;70683;52.492;13.416;2023-11-19T14:42:04;27.75;;;8.70;;
80278;SDS011;70683;52.492;13.416;2023-11-19T14:44:31;27.27;;;6.75;;
80278;SDS011;70683;52.492;13.416;2023-11-19T14:46:58;29.45;;;6.70;;